Homewd, Alabama
Current Conditions -  °F | °C
As of 10:53 AM on Monday 22 Dec 2014 (Local Time) from KBHM Reporting Station
Haze Haze  
Wind Chill: 52°   Ceiling: 600
Heat Index: 52°   Visibility: 5mi
Dew Point: 48°   Wind: 13mph
Humidity: 86%   Direction: 130°SE
Pressure: 29.91"   Gusts: NA
Location:  33.4735°N, 86.8258°W
Report Text: KBHM 221653Z 13011KT 5SM BR OVC006 11/09 A2991 RMK AO2 SLP126 T01110089
Loading
Personal Weather Stations






























Interactive Weather Map New forecast layout! Learn more

10-Day Weather Forecast

Advertisements
Track Severe Weather on mobile